Time;durP1;ratioP1;P1;durP2;ratioP2;P2;SDS_P1;SDS_P2;PMS_P1;PMS_P2;Temp;Humidity;BMP_temperature;BMP_pressure;BME280_temperature;BME280_humidity;BME280_pressure;Samples;Min_cycle;Max_cycle;Signal;HPM_P1;HPM_P2
2023/07/02 00:00:42;;;;;;;10.73;10.43;;;17.80;99.90;;;;;;5044145;28;20235;-82
2023/07/02 00:03:12;;;;;;;10.80;10.50;;;17.80;99.90;;;;;;5044096;28;20234;-83
2023/07/02 00:05:43;;;;;;;10.73;10.43;;;17.90;99.90;;;;;;5043340;28;20245;-83
2023/07/02 00:08:11;;;;;;;10.60;10.30;;;17.80;99.90;;;;;;5043692;28;20304;-83
2023/07/02 00:10:43;;;;;;;10.73;10.43;;;17.90;99.90;;;;;;5043184;28;20228;-83
2023/07/02 00:16:06;;;;;;;10.70;10.40;;;17.80;99.90;;;;;;5043459;28;20310;-82
2023/07/02 00:18:35;;;;;;;10.23;9.93;;;17.80;99.90;;;;;;5043521;28;20258;-82
2023/07/02 00:21:06;;;;;;;10.60;10.30;;;17.70;99.90;;;;;;5043464;28;20227;-83
2023/07/02 00:23:36;;;;;;;10.70;10.40;;;17.70;99.90;;;;;;5043497;28;20286;-83
2023/07/02 00:26:05;;;;;;;10.63;10.32;;;17.70;99.90;;;;;;5043283;28;20298;-83
2023/07/02 00:28:34;;;;;;;10.65;10.35;;;17.70;99.90;;;;;;5054103;28;20255;-83
2023/07/02 00:31:13;;;;;;;10.52;10.23;;;17.70;99.90;;;;;;5044691;28;20223;-81
2023/07/02 00:33:43;;;;;;;10.60;10.30;;;17.70;99.90;;;;;;5043368;28;20242;-83
2023/07/02 00:36:14;;;;;;;10.60;10.30;;;17.60;99.90;;;;;;5043009;28;20235;-82
2023/07/02 00:38:44;;;;;;;10.88;10.57;;;17.60;99.90;;;;;;5043833;28;20236;-82
2023/07/02 00:41:21;;;;;;;10.60;10.30;;;17.70;99.90;;;;;;5043540;28;20228;-83
2023/07/02 00:43:54;;;;;;;10.50;10.20;;;17.60;99.90;;;;;;5043614;28;21066;-83
2023/07/02 00:46:27;;;;;;;10.50;10.20;;;17.70;99.90;;;;;;5043494;28;20239;-82
2023/07/02 00:48:58;;;;;;;10.60;10.30;;;17.70;99.90;;;;;;5043185;28;20243;-82
2023/07/02 00:51:28;;;;;;;10.70;10.40;;;17.70;99.90;;;;;;5043169;28;20220;-83
2023/07/02 00:53:58;;;;;;;10.60;10.30;;;17.70;99.90;;;;;;5043037;28;20255;-83
2023/07/02 00:56:34;;;;;;;10.30;10.00;;;17.80;99.90;;;;;;5042566;28;20250;-82
2023/07/02 00:59:04;;;;;;;10.50;10.20;;;17.80;99.90;;;;;;5042735;28;20229;-82
2023/07/02 01:01:37;;;;;;;10.60;10.30;;;17.80;99.90;;;;;;5049135;28;20223;-83
2023/07/02 01:04:12;;;;;;;10.68;10.38;;;17.80;99.90;;;;;;5053248;28;20231;-83
2023/07/02 01:06:41;;;;;;;10.75;10.45;;;17.80;99.90;;;;;;5055628;28;20223;-83
2023/07/02 01:09:10;;;;;;;10.77;10.48;;;17.80;99.90;;;;;;5055019;28;20299;-83
2023/07/02 01:11:42;;;;;;;10.63;10.32;;;17.90;99.90;;;;;;5049151;28;20239;-83
2023/07/02 01:14:20;;;;;;;10.60;10.30;;;17.90;99.90;;;;;;5046536;28;20226;-83
2023/07/02 01:16:57;;;;;;;10.57;10.27;;;17.80;99.90;;;;;;5046379;28;20235;-82
2023/07/02 01:19:44;;;;;;;10.70;10.40;;;17.90;99.90;;;;;;5052877;28;20223;-82
2023/07/02 01:22:14;;;;;;;10.65;10.35;;;17.80;99.90;;;;;;5053982;28;20294;-83
2023/07/02 01:24:43;;;;;;;10.60;10.30;;;17.80;99.90;;;;;;5046160;28;20297;-83
2023/07/02 01:27:12;;;;;;;10.63;10.32;;;17.80;99.90;;;;;;5046055;28;20235;-83
2023/07/02 01:29:41;;;;;;;10.70;10.40;;;17.80;99.90;;;;;;5044604;28;20315;-82
2023/07/02 01:32:13;;;;;;;10.60;10.30;;;17.80;99.90;;;;;;5044906;28;20262;-83
2023/07/02 01:34:43;;;;;;;10.57;10.27;;;17.90;99.90;;;;;;5044635;28;20286;-83
2023/07/02 01:37:11;;;;;;;10.50;10.20;;;17.90;99.90;;;;;;5044958;28;20238;-83
2023/07/02 01:42:25;;;;;;;10.40;10.10;;;17.90;99.90;;;;;;5046125;28;20208;-83
2023/07/02 01:45:03;;;;;;;10.38;10.07;;;17.90;99.90;;;;;;5045015;28;20242;-83
2023/07/02 01:47:34;;;;;;;10.70;10.40;;;17.90;99.90;;;;;;5045999;28;20291;-83
2023/07/02 01:50:11;;;;;;;10.73;10.43;;;17.90;99.90;;;;;;5045989;28;20220;-83
2023/07/02 01:52:47;;;;;;;10.70;10.40;;;17.90;99.90;;;;;;5045876;28;20226;-83
2023/07/02 01:58:00;;;;;;;11.00;10.70;;;17.90;99.90;;;;;;5044436;28;20792;-83
2023/07/02 02:00:36;;;;;;;10.85;10.55;;;17.90;99.90;;;;;;5045224;28;20228;-83
2023/07/02 02:03:05;;;;;;;11.10;10.80;;;17.80;99.90;;;;;;5048818;28;20207;-83
2023/07/02 02:05:43;;;;;;;11.00;10.70;;;17.80;99.90;;;;;;5059298;28;20258;-82
2023/07/02 02:08:14;;;;;;;11.00;10.70;;;17.80;99.90;;;;;;5059560;28;20238;-82
2023/07/02 02:10:53;;;;;;;11.00;10.70;;;17.80;99.90;;;;;;5060800;28;20243;-82
2023/07/02 02:13:22;;;;;;;11.40;11.00;;;17.70;99.90;;;;;;5048033;28;20228;-82
2023/07/02 02:15:50;;;;;;;11.30;10.90;;;17.70;99.90;;;;;;5046930;28;20231;-82
2023/07/02 02:18:20;;;;;;;11.45;11.05;;;17.70;99.90;;;;;;5046438;28;20239;-82
2023/07/02 02:21:09;;;;;;;11.30;10.90;;;17.60;99.90;;;;;;5045646;28;20258;-82
2023/07/02 02:26:26;;;;;;;11.40;11.00;;;17.50;99.90;;;;;;5045361;28;20238;-82
2023/07/02 02:28:56;;;;;;;11.45;11.05;;;17.50;99.90;;;;;;5045387;28;20227;-83
2023/07/02 02:31:32;;;;;;;11.30;10.90;;;17.40;99.90;;;;;;5045632;28;20223;-82
2023/07/02 02:34:04;;;;;;;11.20;10.80;;;17.40;99.90;;;;;;5045275;28;20219;-83
2023/07/02 02:36:41;;;;;;;11.32;10.93;;;17.40;99.90;;;;;;5044689;28;20235;-82
2023/07/02 02:39:09;;;;;;;11.50;11.10;;;17.40;99.90;;;;;;5045236;28;20233;-82
2023/07/02 02:41:42;;;;;;;11.40;11.00;;;17.30;99.90;;;;;;5044857;28;20234;-82
2023/07/02 05:00:09;;;;;;;10.93;10.63;;;17.20;99.90;;;;;;5057913;28;20250;-78
2023/07/02 05:02:37;;;;;;;11.27;10.88;;;17.30;99.90;;;;;;5061274;28;20231;-77
2023/07/02 05:05:06;;;;;;;11.20;10.80;;;17.30;99.90;;;;;;5059599;28;20242;-78
2023/07/02 05:07:35;;;;;;;10.93;10.63;;;17.30;99.90;;;;;;5058130;28;20242;-78
2023/07/02 05:10:05;;;;;;;10.90;10.60;;;17.40;99.90;;;;;;5058248;28;20322;-79
2023/07/02 05:12:34;;;;;;;11.02;10.70;;;17.40;99.90;;;;;;5058496;28;20234;-79
2023/07/02 05:15:06;;;;;;;11.13;10.73;;;17.40;99.90;;;;;;5059741;28;20249;-80
2023/07/02 05:17:36;;;;;;;11.00;10.70;;;17.40;99.90;;;;;;5057820;28;20240;-79
2023/07/02 05:20:05;;;;;;;11.30;10.90;;;17.50;99.90;;;;;;5058009;28;20247;-79
2023/07/02 05:22:32;;;;;;;11.10;10.80;;;17.50;99.90;;;;;;5051188;28;20254;-80
2023/07/02 05:25:01;;;;;;;10.80;10.50;;;17.60;99.90;;;;;;5038500;28;20243;-80
2023/07/02 05:27:31;;;;;;;10.90;10.60;;;17.60;99.90;;;;;;5038818;28;20271;-80
2023/07/02 05:30:00;;;;;;;11.13;10.75;;;17.70;99.90;;;;;;5039774;28;20331;-80
2023/07/02 05:32:29;;;;;;;11.10;10.70;;;17.70;99.90;;;;;;5038750;28;20296;-78
2023/07/02 05:35:00;;;;;;;11.20;10.80;;;17.70;99.90;;;;;;5038884;28;20326;-79
2023/07/02 05:37:29;;;;;;;11.20;10.80;;;17.60;99.90;;;;;;5039014;28;20295;-78
2023/07/02 05:39:58;;;;;;;11.15;10.75;;;17.60;99.90;;;;;;5037867;28;20291;-79
2023/07/02 05:42:27;;;;;;;11.18;10.77;;;17.60;99.90;;;;;;5038593;28;20231;-80
2023/07/02 05:44:57;;;;;;;10.90;10.60;;;17.60;99.90;;;;;;5038028;28;20230;-79
2023/07/02 05:47:26;;;;;;;11.10;10.73;;;17.70;99.90;;;;;;5038777;28;20291;-79
2023/07/02 05:49:56;;;;;;;11.15;10.75;;;17.70;99.90;;;;;;5039742;28;20238;-79
2023/07/02 05:52:27;;;;;;;11.07;10.73;;;17.80;99.90;;;;;;5037539;28;20238;-79
2023/07/02 05:54:55;;;;;;;10.80;10.50;;;17.80;99.90;;;;;;5037722;28;20241;-79
2023/07/02 05:57:25;;;;;;;10.95;10.65;;;17.80;99.90;;;;;;5040743;28;20741;-79
2023/07/02 05:59:53;;;;;;;10.75;10.45;;;17.80;99.90;;;;;;5042849;28;20299;-80
2023/07/02 06:02:23;;;;;;;10.60;10.30;;;17.80;99.90;;;;;;5043066;28;20251;-80
2023/07/02 06:04:53;;;;;;;10.88;10.57;;;17.80;99.90;;;;;;5044030;28;20235;-79
2023/07/02 06:07:22;;;;;;;10.82;10.52;;;17.80;99.90;;;;;;5041954;28;21095;-80
2023/07/02 06:09:54;;;;;;;11.10;10.80;;;17.80;99.90;;;;;;5042474;28;20235;-79
2023/07/02 06:12:22;;;;;;;11.10;10.80;;;17.90;99.90;;;;;;5043127;28;20232;-79
2023/07/02 06:14:51;;;;;;;10.98;10.68;;;17.90;99.90;;;;;;5043178;28;20235;-79
2023/07/02 06:17:20;;;;;;;10.75;10.45;;;18.00;99.90;;;;;;5044350;28;20335;-80
2023/07/02 06:19:48;;;;;;;10.80;10.50;;;18.00;99.90;;;;;;5043652;28;20223;-80
2023/07/02 06:22:23;;;;;;;10.88;10.57;;;18.10;99.90;;;;;;5044282;28;20227;-80
2023/07/02 06:24:52;;;;;;;10.88;10.57;;;18.10;99.90;;;;;;5043877;28;20333;-80
2023/07/02 06:27:20;;;;;;;10.90;10.60;;;18.10;99.90;;;;;;5043912;28;20294;-80
2023/07/02 06:29:49;;;;;;;10.90;10.60;;;18.20;99.90;;;;;;5044351;28;20230;-80
2023/07/02 06:32:18;;;;;;;10.90;10.60;;;18.20;99.90;;;;;;5045649;28;20235;-80
2023/07/02 06:34:46;;;;;;;11.20;10.90;;;18.20;99.90;;;;;;5052661;28;20520;-80
2023/07/02 06:37:19;;;;;;;10.85;10.55;;;18.20;99.90;;;;;;5047843;28;20236;-83
2023/07/02 06:39:47;;;;;;;10.90;10.60;;;18.20;99.90;;;;;;5045308;28;20248;-79
2023/07/02 06:42:22;;;;;;;10.60;10.30;;;18.20;99.90;;;;;;5044747;28;20243;-79
2023/07/02 06:44:55;;;;;;;11.10;10.80;;;18.30;99.90;;;;;;5028358;28;20244;-81
2023/07/02 06:47:24;;;;;;;10.88;10.57;;;18.20;99.90;;;;;;5030940;28;20235;-80
2023/07/02 06:49:53;;;;;;;11.00;10.70;;;18.30;99.90;;;;;;5037486;28;20301;-80
2023/07/02 06:52:24;;;;;;;11.13;10.82;;;18.40;99.90;;;;;;5052100;28;20226;-80
2023/07/02 06:54:52;;;;;;;11.07;10.77;;;18.40;99.90;;;;;;5032309;28;20250;-78
2023/07/02 06:57:23;;;;;;;10.80;10.50;;;18.50;99.90;;;;;;5044708;28;20240;-79
2023/07/02 06:59:51;;;;;;;10.82;10.52;;;18.50;99.90;;;;;;5062558;28;20238;-79
2023/07/02 07:02:19;;;;;;;11.15;10.85;;;18.50;99.90;;;;;;5051865;28;20328;-78
2023/07/02 07:04:46;;;;;;;10.82;10.52;;;18.60;99.90;;;;;;5041939;28;20296;-79
2023/07/02 07:07:15;;;;;;;11.02;10.73;;;18.70;99.90;;;;;;5041056;28;20269;-78
2023/07/02 07:09:42;;;;;;;11.07;10.77;;;18.80;99.90;;;;;;5042683;28;20311;-79
2023/07/02 07:12:10;;;;;;;11.07;10.77;;;18.80;99.90;;;;;;5042231;28;20231;-79
2023/07/02 07:14:39;;;;;;;10.93;10.63;;;18.80;99.90;;;;;;5041421;28;20262;-79
2023/07/02 07:17:07;;;;;;;10.88;10.57;;;18.90;99.90;;;;;;5040511;28;20242;-78
2023/07/02 07:19:34;;;;;;;10.85;10.55;;;18.80;99.90;;;;;;5030847;28;20284;-79
2023/07/02 07:22:02;;;;;;;10.77;10.48;;;18.70;99.90;;;;;;5024093;28;20236;-78
2023/07/02 07:24:29;;;;;;;10.88;10.57;;;18.70;99.90;;;;;;5018944;28;20231;-78
2023/07/02 07:26:57;;;;;;;10.88;10.57;;;18.70;99.90;;;;;;5018130;28;20243;-79
2023/07/02 07:29:25;;;;;;;10.60;10.30;;;18.80;99.90;;;;;;5019951;28;20224;-79
2023/07/02 07:31:54;;;;;;;10.95;10.65;;;18.90;99.90;;;;;;5030598;28;20329;-77
2023/07/02 07:34:21;;;;;;;10.82;10.52;;;18.90;99.90;;;;;;5044458;28;20228;-78
2023/07/02 07:36:48;;;;;;;10.70;10.40;;;19.00;99.90;;;;;;5044065;28;20293;-79
2023/07/02 07:39:16;;;;;;;10.75;10.45;;;19.00;99.90;;;;;;5042297;28;20232;-78
2023/07/02 07:41:49;;;;;;;10.90;10.60;;;19.00;99.90;;;;;;5040891;28;20239;-79
2023/07/02 07:44:16;;;;;;;10.90;10.60;;;19.00;99.90;;;;;;5041925;28;20219;-79
2023/07/02 07:46:44;;;;;;;10.90;10.60;;;19.10;99.90;;;;;;5040446;28;20240;-79
2023/07/02 07:49:15;;;;;;;10.70;10.40;;;19.20;99.90;;;;;;5042928;28;20463;-79
2023/07/02 07:51:42;;;;;;;10.48;10.18;;;19.30;99.90;;;;;;5042756;28;20227;-79
2023/07/02 07:54:12;;;;;;;10.75;10.45;;;19.30;99.90;;;;;;5035133;28;20235;-79
2023/07/02 07:56:42;;;;;;;10.80;10.50;;;19.40;99.90;;;;;;5024807;28;20236;-80
2023/07/02 07:59:13;;;;;;;10.45;10.15;;;19.50;99.90;;;;;;5032362;28;20274;-79
2023/07/02 08:01:40;;;;;;;10.43;10.13;;;19.60;99.90;;;;;;5040924;28;20239;-79
2023/07/02 08:04:09;;;;;;;10.50;10.20;;;19.50;99.90;;;;;;5043198;28;20227;-80
2023/07/02 08:06:41;;;;;;;10.70;10.40;;;19.40;99.90;;;;;;5040368;28;20239;-81
2023/07/02 08:09:10;;;;;;;10.32;10.02;;;19.40;99.90;;;;;;5044868;28;20234;-80
2023/07/02 08:11:38;;;;;;;10.40;10.10;;;19.30;99.90;;;;;;5022554;28;20315;-80
2023/07/02 08:14:07;;;;;;;10.38;10.07;;;19.40;99.90;;;;;;5022945;28;20323;-79
2023/07/02 08:16:35;;;;;;;10.63;10.32;;;19.50;99.90;;;;;;5018098;28;20438;-78
2023/07/02 08:19:03;;;;;;;10.63;10.32;;;19.60;99.90;;;;;;5019149;28;20224;-78
2023/07/02 08:21:30;;;;;;;10.48;10.18;;;19.60;99.90;;;;;;5020948;28;20231;-78
2023/07/02 08:24:06;;;;;;;10.27;9.98;;;19.60;99.90;;;;;;5031963;28;20255;-78
2023/07/02 08:26:33;;;;;;;10.40;10.10;;;19.60;99.90;;;;;;5031774;28;20239;-78
2023/07/02 08:29:01;;;;;;;10.13;9.82;;;19.70;99.90;;;;;;5035824;28;20236;-78
2023/07/02 08:31:28;;;;;;;10.23;9.93;;;19.80;99.90;;;;;;5038409;28;20286;-80
2023/07/02 08:33:56;;;;;;;9.95;9.65;;;19.90;99.90;;;;;;5040799;28;20235;-79
2023/07/02 08:36:24;;;;;;;9.90;9.60;;;20.10;99.90;;;;;;5039213;28;20334;-77
2023/07/02 08:38:51;;;;;;;10.30;10.00;;;20.20;99.90;;;;;;5038168;28;20427;-78
2023/07/02 08:41:23;;;;;;;9.95;9.65;;;20.30;99.90;;;;;;5039070;28;20235;-78
2023/07/02 08:43:51;;;;;;;10.00;9.70;;;20.40;99.90;;;;;;5044351;28;20241;-78
2023/07/02 08:46:19;;;;;;;9.95;9.65;;;20.40;99.90;;;;;;5041309;28;20255;-79
2023/07/02 08:48:47;;;;;;;9.95;9.65;;;20.60;99.90;;;;;;5041544;28;20234;-79
2023/07/02 08:51:15;;;;;;;9.90;9.60;;;20.60;99.90;;;;;;5042024;28;20235;-79
2023/07/02 08:53:42;;;;;;;9.95;9.65;;;20.40;99.90;;;;;;5041159;28;20330;-79
2023/07/02 08:56:10;;;;;;;10.05;9.75;;;20.40;99.90;;;;;;5040889;28;20227;-78
2023/07/02 08:58:39;;;;;;;10.00;9.70;;;20.40;99.90;;;;;;5040433;28;20235;-78
2023/07/02 09:01:11;;;;;;;9.98;9.68;;;20.10;99.90;;;;;;5039018;28;20242;-77
2023/07/02 09:03:40;;;;;;;10.00;9.70;;;20.00;99.90;;;;;;5038463;28;20235;-79
2023/07/02 09:06:09;;;;;;;9.80;9.50;;;20.30;99.90;;;;;;5039407;28;20243;-78
2023/07/02 09:08:38;;;;;;;9.90;9.60;;;20.50;99.90;;;;;;5038163;28;20235;-79
2023/07/02 09:11:10;;;;;;;10.27;9.98;;;20.90;99.90;;;;;;5039144;28;20246;-78
2023/07/02 09:13:47;;;;;;;10.10;9.80;;;21.10;99.90;;;;;;5038287;28;20296;-78
2023/07/02 09:16:25;;;;;;;10.00;9.70;;;21.20;99.90;;;;;;5037835;28;20235;-78
2023/07/02 09:19:04;;;;;;;10.10;9.80;;;21.20;99.90;;;;;;5041692;28;20342;-77
2023/07/02 09:21:43;;;;;;;10.20;9.90;;;21.00;99.90;;;;;;5037562;28;20239;-77
2023/07/02 09:24:16;;;;;;;10.07;9.77;;;20.80;99.90;;;;;;5036688;28;20261;-78
2023/07/02 09:26:45;;;;;;;10.35;10.05;;;20.70;99.90;;;;;;5037149;28;20298;-77
2023/07/02 09:29:14;;;;;;;10.20;9.90;;;21.00;99.90;;;;;;5037435;28;20311;-78
2023/07/02 09:31:46;;;;;;;10.35;10.05;;;21.50;99.90;;;;;;5040028;28;20243;-78
2023/07/02 09:34:14;;;;;;;10.20;9.90;;;22.00;99.90;;;;;;5041518;28;20303;-78
2023/07/02 09:36:42;;;;;;;10.30;10.00;;;21.80;99.90;;;;;;5040806;28;20238;-78
2023/07/02 09:39:13;;;;;;;10.20;9.90;;;21.80;99.90;;;;;;5041040;28;20254;-78
2023/07/02 09:41:42;;;;;;;10.20;9.90;;;21.90;99.90;;;;;;5041697;28;20286;-77
2023/07/02 09:44:11;;;;;;;10.15;9.85;;;22.20;99.90;;;;;;5042306;28;20238;-78
2023/07/02 09:46:49;;;;;;;9.98;9.68;;;22.60;99.90;;;;;;5040592;28;20293;-78
2023/07/02 09:49:22;;;;;;;9.93;9.63;;;22.40;99.90;;;;;;5041259;28;20237;-77
2023/07/02 09:51:50;;;;;;;10.02;9.73;;;22.30;99.90;;;;;;5042193;28;20232;-78
2023/07/02 09:54:19;;;;;;;10.05;9.75;;;22.30;99.90;;;;;;5053424;28;20239;-78
2023/07/02 09:56:48;;;;;;;10.10;9.80;;;22.40;99.90;;;;;;5057006;28;20262;-78
2023/07/02 09:59:16;;;;;;;9.93;9.63;;;22.20;99.90;;;;;;5048517;28;20234;-79
2023/07/02 10:01:45;;;;;;;10.30;10.00;;;22.20;99.90;;;;;;5043229;28;20231;-78
2023/07/02 10:04:14;;;;;;;10.00;9.70;;;22.50;99.90;;;;;;5043459;28;20255;-79
2023/07/02 10:06:50;;;;;;;10.13;9.82;;;22.70;99.90;;;;;;5043359;28;20251;-76
2023/07/02 10:09:18;;;;;;;10.18;9.88;;;22.60;99.90;;;;;;5041836;28;20290;-79
2023/07/02 10:11:46;;;;;;;10.40;10.10;;;22.30;99.90;;;;;;5046298;28;20227;-78
2023/07/02 10:14:14;;;;;;;10.13;9.82;;;22.30;99.90;;;;;;5046273;28;20327;-78
2023/07/02 10:16:54;;;;;;;10.48;10.18;;;22.10;99.90;;;;;;5044944;28;20326;-78
2023/07/02 10:19:22;;;;;;;10.63;10.32;;;22.00;99.90;;;;;;5045733;28;20351;-78
2023/07/02 10:22:03;;;;;;;10.40;10.10;;;22.30;99.90;;;;;;5044343;28;20334;-78
2023/07/02 10:24:31;;;;;;;10.10;9.80;;;21.90;99.90;;;;;;5049429;28;20247;-77
2023/07/02 10:27:07;;;;;;;10.10;9.80;;;22.00;99.90;;;;;;5056944;28;20235;-78
2023/07/02 10:29:35;;;;;;;10.32;10.02;;;22.00;99.90;;;;;;5050984;28;20231;-78
2023/07/02 10:32:05;;;;;;;10.30;10.00;;;22.00;99.90;;;;;;5044565;28;20318;-78
2023/07/02 10:34:36;;;;;;;10.43;10.13;;;22.00;99.90;;;;;;5042513;28;20326;-76
2023/07/02 10:37:06;;;;;;;10.30;10.00;;;21.80;99.90;;;;;;5045595;28;20323;-77
2023/07/02 10:39:39;;;;;;;10.40;10.10;;;21.80;99.90;;;;;;5052613;28;20211;-78
2023/07/02 10:42:07;;;;;;;10.20;9.90;;;21.80;99.90;;;;;;5050747;28;20235;-78
2023/07/02 10:44:35;;;;;;;10.48;10.18;;;22.20;99.90;;;;;;5051800;28;20303;-78
2023/07/02 10:47:07;;;;;;;10.40;10.10;;;22.90;99.90;;;;;;5043825;28;20303;-78
2023/07/02 10:49:35;;;;;;;10.25;9.95;;;23.10;99.90;;;;;;5041412;28;20318;-78
2023/07/02 10:52:07;;;;;;;10.30;10.00;;;23.10;99.90;;;;;;5040329;28;20231;-78
2023/07/02 10:54:43;;;;;;;10.00;9.70;;;23.00;99.90;;;;;;5041344;28;20330;-79
2023/07/02 10:57:12;;;;;;;10.30;10.00;;;22.80;99.90;;;;;;5040521;28;20330;-77
2023/07/02 10:59:39;;;;;;;10.30;10.00;;;22.90;99.90;;;;;;5040207;28;20232;-78
2023/07/02 11:02:10;;;;;;;10.20;9.90;;;23.00;99.90;;;;;;5040740;28;20239;-78
2023/07/02 11:04:38;;;;;;;10.38;10.07;;;22.90;99.90;;;;;;5040894;28;20335;-78
2023/07/02 11:07:08;;;;;;;10.20;9.90;;;23.00;99.90;;;;;;5041764;28;20231;-78
2023/07/02 11:09:39;;;;;;;10.45;10.15;;;23.10;99.90;;;;;;5043643;28;20251;-78
2023/07/02 11:12:09;;;;;;;10.48;10.18;;;22.90;99.90;;;;;;5041347;28;20236;-77
2023/07/02 11:14:39;;;;;;;10.20;9.90;;;23.20;99.90;;;;;;5041450;28;20250;-77
2023/07/02 11:17:09;;;;;;;10.13;9.82;;;23.90;99.90;;;;;;5040812;28;20232;-79
2023/07/02 11:19:37;;;;;;;9.88;9.57;;;24.00;99.90;;;;;;5043319;28;20315;-78
2023/07/02 11:22:05;;;;;;;10.10;9.80;;;24.00;99.90;;;;;;5042082;28;20232;-78
2023/07/02 11:24:35;;;;;;;10.50;10.20;;;23.90;99.90;;;;;;5041472;28;20228;-77
2023/07/02 11:27:05;;;;;;;10.40;10.10;;;23.70;99.90;;;;;;5039814;28;20255;-77
2023/07/02 11:29:34;;;;;;;10.52;10.23;;;24.10;99.90;;;;;;5039641;28;20215;-77
2023/07/02 11:32:11;;;;;;;10.15;9.85;;;24.50;99.90;;;;;;5046951;28;20234;-78
2023/07/02 11:34:39;;;;;;;10.27;9.98;;;24.80;99.90;;;;;;5045338;28;20231;-77
2023/07/02 11:37:09;;;;;;;10.50;10.20;;;25.00;99.90;;;;;;5042964;28;20259;-77
2023/07/02 11:39:36;;;;;;;10.20;9.90;;;25.10;99.90;;;;;;5045510;28;20231;-77
2023/07/02 11:42:04;;;;;;;10.20;9.90;;;24.90;99.90;;;;;;5044707;28;20338;-77
2023/07/02 11:44:32;;;;;;;10.38;10.07;;;24.90;99.90;;;;;;5048214;28;20231;-80
2023/07/02 11:46:59;;;;;;;10.07;9.77;;;24.90;99.90;;;;;;5048038;28;20334;-77
2023/07/02 11:49:29;;;;;;;10.07;9.77;;;25.00;99.90;;;;;;5047646;28;20287;-77
2023/07/02 11:51:56;;;;;;;10.00;9.70;;;25.20;99.90;;;;;;5048574;28;20234;-77
2023/07/02 11:54:24;;;;;;;9.88;9.57;;;25.40;99.90;;;;;;5049154;28;20219;-77
2023/07/02 11:56:52;;;;;;;10.07;9.77;;;25.30;99.90;;;;;;5048738;28;20322;-78
2023/07/02 11:59:19;;;;;;;10.10;9.80;;;25.50;99.90;;;;;;5049195;28;20286;-78
2023/07/02 12:01:47;;;;;;;9.90;9.60;;;25.60;99.90;;;;;;5045886;28;20227;-79
2023/07/02 12:04:14;;;;;;;10.00;9.70;;;25.60;99.90;;;;;;5050388;28;20263;-78
2023/07/02 12:06:43;;;;;;;10.38;10.07;;;25.70;99.90;;;;;;5046353;28;20295;-78
2023/07/02 12:09:11;;;;;;;10.10;9.80;;;25.70;99.90;;;;;;5040117;28;20251;-80
2023/07/02 12:11:38;;;;;;;10.40;10.10;;;25.90;99.90;;;;;;5040664;28;20231;-78
2023/07/02 12:14:06;;;;;;;10.57;10.27;;;26.00;99.90;;;;;;5042351;28;20231;-77
2023/07/02 12:16:33;;;;;;;10.35;10.05;;;25.90;99.90;;;;;;5036895;28;20238;-76
2023/07/02 12:19:01;;;;;;;10.13;9.82;;;25.80;99.90;;;;;;5037049;28;20359;-78
2023/07/02 12:21:28;;;;;;;10.05;9.75;;;25.80;99.90;;;;;;5037577;28;20295;-77
2023/07/02 12:23:58;;;;;;;10.07;9.77;;;26.00;99.90;;;;;;5037925;28;20261;-77
2023/07/02 12:26:25;;;;;;;10.10;9.80;;;25.60;99.90;;;;;;5037277;28;20308;-77
2023/07/02 12:28:53;;;;;;;10.15;9.85;;;25.40;99.90;;;;;;5038528;28;20291;-78
2023/07/02 12:31:20;;;;;;;10.25;9.95;;;25.30;99.90;;;;;;5038657;28;20231;-77
2023/07/02 12:33:48;;;;;;;10.10;9.80;;;25.70;99.90;;;;;;5038679;28;20310;-77
2023/07/02 12:36:15;;;;;;;10.05;9.75;;;25.90;99.90;;;;;;5037531;28;20235;-77
2023/07/02 12:38:43;;;;;;;9.90;9.60;;;26.20;99.90;;;;;;5038647;28;20239;-77
2023/07/02 12:41:12;;;;;;;10.50;10.20;;;26.50;99.90;;;;;;5039300;28;20795;-78
2023/07/02 12:43:39;;;;;;;10.40;10.10;;;26.60;99.90;;;;;;5037888;28;20234;-77
2023/07/02 12:46:08;;;;;;;10.10;9.80;;;26.50;99.90;;;;;;5037508;28;20238;-77
2023/07/02 12:48:35;;;;;;;10.35;10.05;;;26.50;99.90;;;;;;5036949;28;20234;-78
2023/07/02 12:51:03;;;;;;;10.30;10.00;;;26.30;99.90;;;;;;5037636;28;20637;-77
2023/07/02 12:53:31;;;;;;;10.30;10.00;;;26.70;99.90;;;;;;5037561;28;20683;-77
2023/07/02 12:55:58;;;;;;;10.48;10.18;;;26.80;99.90;;;;;;5036684;28;20235;-78
2023/07/02 12:58:27;;;;;;;10.20;9.90;;;26.60;99.90;;;;;;5043020;28;20230;-77
2023/07/02 13:00:55;;;;;;;10.32;10.02;;;26.70;99.90;;;;;;5042793;28;20235;-77
2023/07/02 13:03:24;;;;;;;10.32;10.02;;;26.70;99.90;;;;;;5039689;28;20306;-77
2023/07/02 13:05:52;;;;;;;10.90;10.60;;;27.30;99.90;;;;;;5039843;28;20269;-78
2023/07/02 13:08:20;;;;;;;10.70;10.40;;;27.20;99.90;;;;;;5041337;28;20242;-77
2023/07/02 13:10:47;;;;;;;10.70;10.40;;;27.00;99.90;;;;;;5042244;28;20232;-77
2023/07/02 13:13:15;;;;;;;10.32;10.02;;;27.10;99.90;;;;;;5041185;28;20326;-78
2023/07/02 13:15:44;;;;;;;10.15;9.85;;;27.10;99.90;;;;;;5040009;28;20270;-77
2023/07/02 13:18:11;;;;;;;10.30;10.00;;;27.00;99.90;;;;;;5040187;28;20261;-77
2023/07/02 13:20:39;;;;;;;10.10;9.80;;;26.80;99.90;;;;;;5040595;28;20295;-77
2023/07/02 13:23:06;;;;;;;10.05;9.75;;;26.60;99.90;;;;;;5040333;28;20306;-77
2023/07/02 13:25:34;;;;;;;10.10;9.80;;;26.40;99.90;;;;;;5039873;28;20330;-78
2023/07/02 13:28:02;;;;;;;10.10;9.80;;;26.30;99.90;;;;;;5039955;28;20239;-78
2023/07/02 13:30:30;;;;;;;10.00;9.70;;;26.00;99.90;;;;;;5041824;28;20330;-77
2023/07/02 13:32:59;;;;;;;10.00;9.70;;;25.60;99.90;;;;;;5042715;28;20231;-78
2023/07/02 13:35:27;;;;;;;10.60;10.30;;;25.30;99.90;;;;;;5041963;28;20658;-77
2023/07/02 13:37:54;;;;;;;10.70;10.40;;;25.50;99.90;;;;;;5041846;28;20246;-78
2023/07/02 13:40:22;;;;;;;10.60;10.30;;;25.70;99.90;;;;;;5042329;28;20236;-78
2023/07/02 13:42:49;;;;;;;10.80;10.50;;;25.60;99.90;;;;;;5042026;28;20232;-78
2023/07/02 13:45:17;;;;;;;10.57;10.27;;;26.10;99.90;;;;;;5041691;28;20248;-78
2023/07/02 13:47:45;;;;;;;10.20;9.90;;;26.70;99.90;;;;;;5043067;28;20263;-80
2023/07/02 13:50:14;;;;;;;10.30;10.00;;;26.90;99.90;;;;;;5042286;28;20223;-77
2023/07/02 13:52:41;;;;;;;10.18;9.88;;;26.50;99.90;;;;;;5041170;28;20238;-77
2023/07/02 13:55:10;;;;;;;10.10;9.80;;;25.80;99.90;;;;;;5045229;28;20291;-77
2023/07/02 13:57:37;;;;;;;9.98;9.68;;;25.70;99.90;;;;;;5040634;28;20228;-77
2023/07/02 14:00:09;;;;;;;10.10;9.80;;;25.50;99.90;;;;;;5042795;28;20270;-78
2023/07/02 14:02:36;;;;;;;10.02;9.73;;;25.30;99.90;;;;;;5040414;28;20331;-77
2023/07/02 14:05:04;;;;;;;10.32;10.02;;;24.80;99.90;;;;;;5039518;28;20342;-77
2023/07/02 14:07:31;;;;;;;10.70;10.40;;;24.60;99.90;;;;;;5038875;28;20257;-77
2023/07/02 14:09:59;;;;;;;10.50;10.20;;;24.90;99.90;;;;;;5039775;28;20227;-77
2023/07/02 14:12:27;;;;;;;10.00;9.70;;;25.40;99.90;;;;;;5039594;28;20231;-77
2023/07/02 14:14:54;;;;;;;10.07;9.77;;;25.60;99.90;;;;;;5038440;28;20231;-79
2023/07/02 14:17:23;;;;;;;10.38;10.07;;;25.80;99.90;;;;;;5040244;28;20224;-77
2023/07/02 14:19:53;;;;;;;10.10;9.80;;;25.80;99.90;;;;;;5042296;28;20251;-79
2023/07/02 14:22:20;;;;;;;10.20;9.90;;;25.30;99.90;;;;;;5041841;28;20269;-78
2023/07/02 14:24:48;;;;;;;10.32;10.02;;;25.30;99.90;;;;;;5041959;28;20239;-81
2023/07/02 14:27:15;;;;;;;10.57;10.27;;;25.00;99.90;;;;;;5041704;28;20326;-78
2023/07/02 14:29:43;;;;;;;10.38;10.07;;;24.70;99.90;;;;;;5040879;28;20249;-78
2023/07/02 14:32:11;;;;;;;10.18;9.88;;;24.70;99.90;;;;;;5042101;28;20245;-78
2023/07/02 14:34:40;;;;;;;10.38;10.07;;;24.70;99.90;;;;;;5040101;28;20270;-78
2023/07/02 14:37:07;;;;;;;10.60;10.30;;;24.70;99.90;;;;;;5040751;28;20318;-78
2023/07/02 14:39:35;;;;;;;10.40;10.10;;;25.20;99.90;;;;;;5040820;28;20235;-78
2023/07/02 14:42:03;;;;;;;10.70;10.40;;;25.80;99.90;;;;;;5041357;28;20237;-78
2023/07/02 14:44:30;;;;;;;10.88;10.57;;;26.30;99.90;;;;;;5041044;28;20331;-78
2023/07/02 14:46:58;;;;;;;10.63;10.32;;;26.60;99.90;;;;;;5041409;28;20235;-78
2023/07/02 14:49:25;;;;;;;10.73;10.43;;;26.50;99.90;;;;;;5043308;28;20306;-78
2023/07/02 14:51:54;;;;;;;10.70;10.40;;;26.70;99.90;;;;;;5041507;28;20289;-79
2023/07/02 14:54:22;;;;;;;10.27;9.98;;;26.70;99.90;;;;;;5040186;28;20279;-78
2023/07/02 14:56:49;;;;;;;10.40;10.10;;;26.40;99.90;;;;;;5040223;28;20229;-79
2023/07/02 14:59:17;;;;;;;10.23;9.93;;;26.10;99.90;;;;;;5039984;28;20243;-78
2023/07/02 15:01:44;;;;;;;9.85;9.55;;;26.00;99.90;;;;;;5039937;28;20327;-78
2023/07/02 15:04:12;;;;;;;10.02;9.73;;;26.00;99.90;;;;;;5040078;28;20235;-79
2023/07/02 15:06:39;;;;;;;10.00;9.70;;;26.00;99.90;;;;;;5039268;28;20318;-77
2023/07/02 15:09:08;;;;;;;10.45;10.15;;;25.80;99.90;;;;;;5043072;28;20302;-78